Time;durP1;ratioP1;P1;durP2;ratioP2;P2;SDS_P1;SDS_P2;PMS_P1;PMS_P2;Temp;Humidity;BMP_temperature;BMP_pressure;BME280_temperature;BME280_humidity;BME280_pressure;Samples;Min_cycle;Max_cycle;Signal;HPM_P1;HPM_P2
2022/07/28 00:01:28;;;;;;;3.90;2.72;;;;;;;18.48;86.75;99511.74;1726151;83;21079;-83
2022/07/28 00:03:56;;;;;;;4.92;2.52;;;;;;;18.48;86.72;99506.90;1726156;83;21087;-81
2022/07/28 00:06:22;;;;;;;2.67;2.47;;;;;;;18.48;86.67;99510.41;1726173;83;20997;-81
2022/07/28 00:08:48;;;;;;;4.90;2.87;;;;;;;18.48;86.60;99512.23;1726300;83;21100;-82
2022/07/28 00:11:15;;;;;;;3.67;3.00;;;;;;;18.43;86.64;99509.87;1725847;83;21429;-81
2022/07/28 00:13:41;;;;;;;3.35;3.05;;;;;;;18.37;86.68;99514.27;1726525;83;21060;-83
2022/07/28 00:16:09;;;;;;;3.27;3.08;;;;;;;18.33;86.63;99515.44;1705471;83;21139;-83
2022/07/28 00:18:36;;;;;;;3.30;3.00;;;;;;;18.31;86.67;99517.36;1726419;83;21567;-83
2022/07/28 00:21:02;;;;;;;7.22;3.15;;;;;;;18.27;86.71;99521.16;1725947;83;21051;-82
2022/07/28 00:23:29;;;;;;;4.17;3.12;;;;;;;18.26;86.69;99515.48;1725987;83;21112;-82
2022/07/28 00:25:56;;;;;;;3.58;3.17;;;;;;;18.23;86.64;99507.20;1725675;83;21006;-82
2022/07/28 00:28:23;;;;;;;4.00;3.45;;;;;;;18.23;86.61;99518.34;1725892;83;21064;-83
2022/07/28 00:30:49;;;;;;;4.55;3.52;;;;;;;18.20;86.62;99511.39;1726033;82;21661;-83
2022/07/28 00:33:17;;;;;;;4.33;3.42;;;;;;;18.18;86.63;99516.82;1726116;83;21571;-84
2022/07/28 00:35:44;;;;;;;5.10;3.75;;;;;;;18.15;86.66;99517.02;1725999;83;21119;-83
2022/07/28 00:38:12;;;;;;;3.47;3.05;;;;;;;18.11;86.82;99512.87;1725743;82;21556;-83
2022/07/28 00:43:24;;;;;;;3.67;3.30;;;;;;;18.04;87.23;99522.67;1726082;83;21578;-82
2022/07/28 00:45:50;;;;;;;4.42;3.37;;;;;;;18.04;87.34;99524.00;1725627;83;21049;-83
2022/07/28 00:48:16;;;;;;;6.50;3.40;;;;;;;18.02;87.42;99525.44;1725770;83;21143;-83
2022/07/28 00:50:45;;;;;;;8.28;3.10;;;;;;;17.98;87.75;99530.11;1725645;83;21071;-81
2022/07/28 00:53:12;;;;;;;5.08;3.27;;;;;;;17.95;87.89;99532.12;1725703;83;21060;-83
2022/07/28 00:55:40;;;;;;;3.25;2.77;;;;;;;17.92;87.99;99528.33;1726038;82;21532;-83
2022/07/28 00:58:06;;;;;;;5.03;3.00;;;;;;;17.89;88.21;99525.40;1726274;83;21032;-83
2022/07/28 01:00:33;;;;;;;5.87;2.70;;;;;;;17.86;88.34;99527.38;1726001;83;21220;-84
2022/07/28 01:02:59;;;;;;;4.08;3.10;;;;;;;17.82;88.40;99522.25;1725803;83;21092;-83
2022/07/28 01:05:31;;;;;;;3.45;3.08;;;;;;;17.80;88.45;99521.50;1725586;83;21071;-83
2022/07/28 01:08:07;;;;;;;5.00;2.40;;;;;;;17.80;88.44;99518.84;1722412;82;21064;-84
2022/07/28 01:10:48;;;;;;;3.33;3.00;;;;;;;17.81;88.20;99525.84;1725379;83;20973;-83
2022/07/28 01:13:47;;;;;;;3.47;2.47;;;;;;;17.82;88.05;99529.39;1725430;82;21537;-83
2022/07/28 01:16:14;;;;;;;5.75;2.75;;;;;;;17.83;87.94;99522.61;1726018;82;20978;-84
2022/07/28 01:18:50;;;;;;;3.30;3.00;;;;;;;17.85;87.81;99525.66;1726079;82;21146;-83
2022/07/28 01:21:22;;;;;;;5.10;2.87;;;;;;;17.83;87.87;99529.75;1724879;82;21001;-83
2022/07/28 01:23:59;;;;;;;2.75;2.47;;;;;;;;;;1725869;82;21219;-83
2022/07/28 01:27:02;;;;;;;4.15;3.00;;;;;;;17.77;87.93;99529.67;1725426;82;21569;-81
2022/07/28 01:29:58;;;;;;;5.15;2.40;;;;;;;17.72;88.15;99541.55;1740649;80;22200;-83
2022/07/28 01:32:27;;;;;;;4.60;2.85;;;;;;;17.69;88.33;99542.61;1762308;81;21633;-83
2022/07/28 01:35:22;;;;;;;2.72;2.50;;;;;;;17.68;88.34;99528.92;1762548;81;21021;-82
2022/07/28 01:37:52;;;;;;;3.22;2.92;;;;;;;17.68;88.46;99534.23;1762540;81;21048;-82
2022/07/28 01:40:21;;;;;;;3.35;2.70;;;;;;;17.66;88.63;99540.62;1762431;81;21124;-81
2022/07/28 01:42:51;;;;;;;3.67;2.60;;;;;;;17.62;88.82;99540.81;1728051;81;21120;-82
2022/07/28 01:45:18;;;;;;;3.25;2.95;;;;;;;17.58;89.02;99550.41;1725914;82;21045;-82
2022/07/28 01:47:46;;;;;;;3.98;2.60;;;;;;;17.56;89.17;99543.01;1725358;83;21044;-82
2022/07/28 01:50:15;;;;;;;8.78;2.98;;;;;;;17.56;89.17;99535.87;1725834;83;21048;-81
2022/07/28 01:52:42;;;;;;;2.80;2.60;;;;;;;17.58;89.27;99535.78;1725724;83;21104;-84
2022/07/28 01:55:09;;;;;;;4.40;3.37;;;;;;;17.58;89.44;99544.61;1725784;83;21513;-84
2022/07/28 01:57:36;;;;;;;3.17;2.65;;;;;;;17.56;89.61;99550.99;1725559;83;21029;-82
2022/07/28 02:00:09;;;;;;;2.62;2.42;;;;;;;17.54;89.63;99548.42;1726161;83;21571;-82
2022/07/28 02:02:45;;;;;;;2.87;2.58;;;;;;;17.56;89.62;99550.99;1726098;83;21096;-83
2022/07/28 02:05:15;;;;;;;3.80;2.60;;;;;;;17.58;89.58;99543.76;1725369;83;21998;-81
2022/07/28 02:07:42;;;;;;;4.10;2.65;;;;;;;17.58;89.50;99536.63;1725731;83;20985;-82
2022/07/28 02:10:11;;;;;;;4.30;2.33;;;;;;;17.61;89.27;99532.93;1725985;82;21002;-84
2022/07/28 02:12:38;;;;;;;3.47;2.20;;;;;;;17.66;88.94;99536.16;1721431;83;21128;-82
2022/07/28 02:15:10;;;;;;;2.25;2.05;;;;;;;17.70;88.75;99540.34;1721382;83;21080;-82
2022/07/28 02:17:41;;;;;;;3.65;2.37;;;;;;;17.66;88.88;99541.47;1721413;83;21504;-82
2022/07/28 02:20:09;;;;;;;2.00;1.90;;;;;;;17.61;88.93;99546.23;1721366;83;20998;-83
2022/07/28 02:22:40;;;;;;;4.08;2.40;;;;;;;17.57;88.95;99546.06;1721389;83;21096;-82
2022/07/28 02:25:08;;;;;;;2.95;2.00;;;;;;;17.56;89.02;99551.84;1721185;83;21077;-81
2022/07/28 02:27:40;;;;;;;3.58;2.50;;;;;;;17.54;89.02;99553.75;1721440;83;21057;-82
2022/07/28 02:30:36;;;;;;;2.30;2.10;;;;;;;17.49;88.99;99553.18;1721239;83;21247;-83
2022/07/28 02:33:08;;;;;;;2.83;2.12;;;;;;;17.49;88.96;99562.98;1678483;83;21544;-82
2022/07/28 02:35:47;;;;;;;2.08;1.98;;;;;;;17.49;88.91;99565.64;1720187;83;21002;-83
2022/07/28 02:38:24;;;;;;;2.00;1.82;;;;;;;17.49;88.89;99569.63;1725067;82;21100;-83
2022/07/28 02:40:53;;;;;;;5.50;2.00;;;;;;;17.52;88.73;99562.79;1720860;82;21017;-81
2022/07/28 02:43:29;;;;;;;2.37;2.17;;;;;;;17.54;88.62;99568.38;1721517;83;21612;-82
2022/07/28 02:45:59;;;;;;;2.08;1.98;;;;;;;17.55;88.29;99565.23;1720969;83;21029;-82
2022/07/28 02:48:30;;;;;;;2.72;1.90;;;;;;;17.52;88.02;99577.42;1721421;83;21524;-81
2022/07/28 02:50:57;;;;;;;2.15;2.05;;;;;;;17.51;87.84;99571.71;1720783;83;21040;-83
2022/07/28 02:53:23;;;;;;;2.25;2.05;;;;;;;17.52;87.55;99578.27;1721175;83;21694;-82
2022/07/28 02:55:50;;;;;;;2.30;2.10;;;;;;;17.53;87.31;99580.44;1720954;83;21098;-83
2022/07/28 02:58:22;;;;;;;2.62;2.10;;;;;;;17.52;87.10;99585.41;1721135;83;20982;-82
2022/07/28 03:00:50;;;;;;;4.83;2.08;;;;;;;17.50;86.89;99587.28;1721096;83;20997;-81
2022/07/28 03:03:17;;;;;;;2.45;1.80;;;;;;;17.48;86.79;99586.53;1720875;83;21045;-83
2022/07/28 03:05:44;;;;;;;4.17;2.20;;;;;;;17.44;86.66;99582.72;1721309;83;21115;-80
2022/07/28 03:08:11;;;;;;;2.45;2.25;;;;;;;17.45;86.64;99588.44;1721008;83;21857;-81
2022/07/28 03:10:37;;;;;;;2.62;2.02;;;;;;;17.43;86.57;99589.02;1721054;83;21068;-82
2022/07/28 03:13:06;;;;;;;2.83;2.05;;;;;;;17.41;86.57;99578.91;1721131;83;21033;-83
2022/07/28 03:15:34;;;;;;;2.20;2.00;;;;;;;17.40;86.44;99578.55;1721451;83;21555;-82
2022/07/28 03:18:03;;;;;;;3.83;2.20;;;;;;;17.43;86.53;99573.05;1721123;83;21148;-82
2022/07/28 03:20:31;;;;;;;1.82;1.72;;;;;;;17.43;86.50;99572.17;1721032;83;21568;-83
2022/07/28 03:22:58;;;;;;;3.27;2.02;;;;;;;17.43;86.71;99573.50;1740748;80;21084;-83
2022/07/28 03:25:42;;;;;;;3.98;1.67;;;;;;;17.40;86.82;99574.56;1767135;81;21115;-82
2022/07/28 03:28:13;;;;;;;;;;;;;;;17.41;86.79;99565.61;1770343;81;21099;-82
2022/07/28 03:30:41;;;;;;;2.62;2.00;;;;;;;17.42;86.87;99564.68;1767597;80;20223;-82
2022/07/28 03:33:07;;;;;;;1.90;1.80;;;;;;;17.43;86.85;99566.41;1767869;81;21093;-82
2022/07/28 03:35:36;;;;;;;4.35;1.80;;;;;;;17.48;86.96;99582.53;1767816;81;21028;-81
2022/07/28 03:38:13;;;;;;;2.85;1.90;;;;;;;17.48;86.96;99585.20;1774070;80;21083;-81
2022/07/28 03:40:40;;;;;;;1.90;1.80;;;;;;;17.46;86.89;99583.47;1767677;81;21083;-84
2022/07/28 03:43:08;;;;;;;2.15;1.95;;;;;;;17.44;86.60;99581.39;1774514;80;21079;-83
2022/07/28 03:45:34;;;;;;;1.80;1.70;;;;;;;17.48;86.41;99585.20;1762545;81;21796;-83
2022/07/28 03:48:01;;;;;;;7.22;1.57;;;;;;;17.52;86.18;99584.92;1721882;82;21025;-80
2022/07/28 03:50:28;;;;;;;2.02;1.80;;;;;;;17.57;85.78;99588.14;1722856;82;21010;-81
2022/07/28 03:52:56;;;;;;;2.27;1.80;;;;;;;17.59;85.36;99590.22;1722558;83;21025;-83
2022/07/28 03:55:23;;;;;;;4.70;1.87;;;;;;;17.60;85.22;99592.40;1722620;83;21035;-84
2022/07/28 03:57:50;;;;;;;5.20;1.90;;;;;;;17.66;85.07;99589.36;1722607;82;21151;-83
2022/07/28 04:00:17;;;;;;;1.62;1.52;;;;;;;17.70;84.47;99583.38;1715572;83;21673;-82
2022/07/28 04:02:45;;;;;;;3.62;1.62;;;;;;;17.71;84.05;99581.95;1715501;83;21021;-82
2022/07/28 04:05:14;;;;;;;3.72;1.80;;;;;;;17.76;83.41;99584.33;1715422;83;21105;-83
2022/07/28 04:07:42;;;;;;;2.55;1.50;;;;;;;17.80;83.08;99597.34;1715659;83;21081;-83
2022/07/28 04:10:13;;;;;;;6.25;1.65;;;;;;;17.83;82.15;99592.29;1692938;83;21592;-83
2022/07/28 04:12:54;;;;;;;3.17;1.52;;;;;;;17.87;82.03;99600.97;1715686;83;21035;-80
2022/07/28 04:15:22;;;;;;;4.30;1.82;;;;;;;17.92;81.47;99605.52;1715771;83;21650;-84
2022/07/28 04:17:48;;;;;;;1.98;1.60;;;;;;;17.96;80.65;99610.55;1715512;83;21571;-79
2022/07/28 04:20:19;;;;;;;5.83;1.90;;;;;;;18.01;79.84;99600.47;1715938;83;21001;-81
2022/07/28 04:22:46;;;;;;;4.08;1.60;;;;;;;18.09;79.56;99604.44;1715555;83;21287;-82
2022/07/28 04:25:14;;;;;;;3.47;1.40;;;;;;;18.16;78.60;99600.45;1722515;83;21026;-83
2022/07/28 04:27:42;;;;;;;2.27;1.65;;;;;;;18.23;78.17;99608.89;1725678;82;21587;-83
2022/07/28 04:30:15;;;;;;;4.95;1.45;;;;;;;18.27;77.58;99604.57;1725325;83;21565;-82
2022/07/28 04:32:46;;;;;;;2.60;1.40;;;;;;;18.31;77.07;99606.59;1725858;83;21559;-81
2022/07/28 04:35:12;;;;;;;1.32;1.22;;;;;;;18.38;76.92;99607.89;1725827;83;21267;-83
2022/07/28 04:37:39;;;;;;;2.92;1.27;;;;;;;18.42;76.75;99597.87;1725526;83;21133;-78
2022/07/28 04:40:08;;;;;;;3.22;1.50;;;;;;;18.49;76.45;99605.37;1725164;83;21100;-80
2022/07/28 04:42:37;;;;;;;4.20;1.55;;;;;;;18.54;75.86;99605.05;1725156;83;21025;-81
2022/07/28 04:45:06;;;;;;;2.75;1.35;;;;;;;18.61;76.02;99609.50;1725335;83;22156;-82
2022/07/28 04:47:33;;;;;;;3.40;1.70;;;;;;;18.66;75.78;99609.59;1706117;83;22234;-83
2022/07/28 04:50:00;;;;;;;4.90;1.30;;;;;;;18.72;75.35;99618.97;1725727;82;21036;-83
2022/07/28 04:52:27;;;;;;;3.92;1.67;;;;;;;18.75;75.36;99616.95;1725522;83;21001;-81
2022/07/28 04:54:53;;;;;;;3.70;1.20;;;;;;;18.81;75.38;99621.03;1725608;83;21093;-81
2022/07/28 04:57:21;;;;;;;5.35;1.77;;;;;;;18.88;74.50;99621.52;1725363;83;21100;-82
2022/07/28 04:59:48;;;;;;;5.78;1.67;;;;;;;18.90;74.50;99614.25;1725897;82;21556;-82
2022/07/28 05:02:14;;;;;;;1.85;1.30;;;;;;;18.94;74.59;99619.25;1725764;83;21073;-83
2022/07/28 05:04:42;;;;;;;4.33;1.37;;;;;;;19.01;74.39;99621.02;1725386;83;21088;-83
2022/07/28 05:07:08;;;;;;;7.12;1.50;;;;;;;19.06;73.90;99617.59;1725658;83;21056;-80
2022/07/28 05:09:36;;;;;;;2.15;1.25;;;;;;;19.09;74.27;99634.69;1725646;83;20998;-83
2022/07/28 05:12:05;;;;;;;3.15;1.47;;;;;;;19.15;74.31;99633.44;1725776;82;21175;-85
2022/07/28 05:14:31;;;;;;;3.33;1.40;;;;;;;19.24;73.77;99625.28;1725505;82;21120;-83
2022/07/28 05:16:58;;;;;;;3.12;1.50;;;;;;;19.32;73.49;99618.94;1725485;82;21076;-84
2022/07/28 05:19:26;;;;;;;6.10;1.35;;;;;;;19.39;72.15;99622.03;1712421;83;21019;-83
2022/07/28 05:21:54;;;;;;;3.20;1.35;;;;;;;19.46;71.63;99629.98;1697693;84;21032;-82
2022/07/28 05:24:21;;;;;;;1.90;1.25;;;;;;;19.49;71.37;99631.95;1700196;83;21165;-83
2022/07/28 05:26:47;;;;;;;1.40;1.10;;;;;;;19.54;70.90;99634.30;1708263;83;21057;-83
2022/07/28 05:29:14;;;;;;;4.28;1.25;;;;;;;19.59;69.85;99636.17;1708100;84;21365;-83
2022/07/28 05:31:41;;;;;;;4.72;1.30;;;;;;;19.65;69.89;99636.20;1708341;83;21061;-83
2022/07/28 05:34:07;;;;;;;3.98;1.10;;;;;;;19.70;68.90;99634.55;1708187;84;21584;-84
2022/07/28 05:36:35;;;;;;;4.85;1.20;;;;;;;19.74;68.12;99633.39;1707995;83;21485;-81
2022/07/28 05:39:02;;;;;;;7.12;1.60;;;;;;;19.77;68.45;99637.19;1732679;82;21024;-83
2022/07/28 05:41:28;;;;;;;5.28;1.15;;;;;;;19.82;67.79;99639.05;1737435;82;21057;-83
2022/07/28 05:43:57;;;;;;;2.95;1.40;;;;;;;19.87;67.45;99642.27;1737106;82;21099;-82
2022/07/28 05:46:23;;;;;;;3.15;1.05;;;;;;;19.93;67.14;99648.98;1736814;82;21118;-82
2022/07/28 05:48:51;;;;;;;5.60;1.20;;;;;;;19.96;66.42;99652.77;1737310;82;21177;-81
2022/07/28 05:51:18;;;;;;;4.28;1.10;;;;;;;19.98;65.75;99655.69;1736805;82;21060;-80
2022/07/28 05:53:45;;;;;;;3.50;1.57;;;;;;;20.02;65.87;99650.98;1737047;82;21069;-82
2022/07/28 05:56:13;;;;;;;5.25;1.20;;;;;;;20.08;66.03;99656.38;1736955;82;21096;-83
2022/07/28 05:58:41;;;;;;;8.43;1.27;;;;;;;20.15;66.13;99658.97;1737193;82;21086;-82
2022/07/28 06:01:07;;;;;;;3.70;1.50;;;;;;;20.20;65.57;99665.67;1736989;82;21169;-80
2022/07/28 06:03:35;;;;;;;2.85;1.32;;;;;;;20.27;65.84;99659.41;1737238;82;21118;-82
2022/07/28 06:06:04;;;;;;;5.35;1.00;;;;;;;20.35;65.42;99666.38;1736939;82;20997;-82
2022/07/28 06:08:32;;;;;;;4.90;1.10;;;;;;;20.43;64.74;99671.67;1737080;82;21131;-83
2022/07/28 06:10:58;;;;;;;6.37;1.00;;;;;;;20.50;63.65;99671.59;1736751;82;21075;-83
2022/07/28 06:13:27;;;;;;;4.58;1.10;;;;;;;20.54;63.34;99672.59;1736743;82;21505;-82
2022/07/28 06:15:57;;;;;;;2.55;1.50;;;;;;;20.59;62.47;99678.91;1737062;82;21530;-82
2022/07/28 06:18:24;;;;;;;3.62;1.27;;;;;;;20.62;61.37;99681.36;1736829;82;21119;-85
2022/07/28 06:20:50;;;;;;;6.70;2.27;;;;;;;20.63;61.87;99673.76;1736835;82;21614;-83
2022/07/28 06:23:22;;;;;;;3.77;1.55;;;;;;;20.70;61.23;99683.52;1737100;82;21539;-82
2022/07/28 06:25:50;;;;;;;3.72;1.27;;;;;;;20.73;61.83;99685.47;1730126;82;22141;-80
2022/07/28 06:28:21;;;;;;;2.10;1.30;;;;;;;20.80;61.73;99691.72;1726220;83;21646;-79
2022/07/28 06:30:47;;;;;;;1.05;1.00;;;;;;;20.83;60.91;99691.46;1724335;82;21056;-83
2022/07/28 06:33:15;;;;;;;4.78;1.82;;;;;;;20.89;61.19;99681.66;1726220;82;21124;-81
2022/07/28 06:35:42;;;;;;;6.05;3.00;;;;;;;20.95;59.49;99685.22;1726276;83;21578;-81
2022/07/28 06:38:08;;;;;;;5.45;1.80;;;;;;;20.99;59.78;99678.65;1726092;82;21788;-82
2022/07/28 06:40:35;;;;;;;6.47;2.42;;;;;;;21.02;59.50;99691.80;1725996;83;21588;-82
2022/07/28 06:43:02;;;;;;;5.62;2.08;;;;;;;21.05;60.04;99692.91;1725952;83;21627;-82
2022/07/28 06:45:29;;;;;;;3.75;1.60;;;;;;;21.13;60.38;99696.33;1725862;83;21583;-83
2022/07/28 06:47:56;;;;;;;2.98;1.75;;;;;;;21.21;60.64;99693.08;1725946;83;21523;-83
2022/07/28 06:50:22;;;;;;;5.22;2.08;;;;;;;21.28;60.50;99691.17;1726045;82;22060;-81
2022/07/28 06:52:49;;;;;;;5.17;1.52;;;;;;;21.36;60.26;99693.73;1725801;83;21017;-80
2022/07/28 06:55:15;;;;;;;1.98;1.30;;;;;;;21.43;58.71;99701.66;1725878;82;21032;-81
2022/07/28 06:57:42;;;;;;;6.22;1.30;;;;;;;21.48;59.79;99696.33;1726016;82;21112;-84
2022/07/28 07:00:13;;;;;;;1.72;1.07;;;;;;;21.57;59.36;99699.27;1725612;83;21137;-82
2022/07/28 07:02:40;;;;;;;1.70;1.00;;;;;;;21.63;58.54;99688.94;1725891;83;21191;-81
2022/07/28 07:05:08;;;;;;;4.15;1.20;;;;;;;21.71;59.15;99693.71;1726096;83;21087;-82
2022/07/28 07:07:36;;;;;;;3.95;1.10;;;;;;;21.80;58.39;99696.14;1725918;83;20990;-82
2022/07/28 07:10:04;;;;;;;1.72;1.00;;;;;;;21.88;57.83;99692.38;1726275;83;21123;-83
2022/07/28 07:12:33;;;;;;;5.62;1.42;;;;;;;22.00;58.43;99693.23;1725866;83;21135;-83
2022/07/28 07:15:02;;;;;;;5.80;1.40;;;;;;;22.11;57.81;99701.28;1726125;83;21192;-81
2022/07/28 07:17:30;;;;;;;4.65;1.70;;;;;;;22.20;57.62;99692.98;1725824;82;21627;-80
2022/07/28 07:19:58;;;;;;;1.95;1.30;;;;;;;22.27;56.55;99694.18;1725886;81;21112;-83
2022/07/28 07:22:24;;;;;;;2.70;1.02;;;;;;;22.35;56.26;99697.63;1738519;80;21082;-83
2022/07/28 07:24:52;;;;;;;3.83;0.95;;;;;;;22.44;54.73;99700.42;1732350;82;38645;-84
2022/07/28 07:27:19;;;;;;;2.47;1.07;;;;;;;22.47;54.46;99701.98;1708792;83;21235;-83
2022/07/28 07:29:46;;;;;;;3.70;1.30;;;;;;;22.52;54.01;99697.09;1701656;83;21014;-82
2022/07/28 07:32:12;;;;;;;2.10;1.00;;;;;;;22.55;53.11;99688.81;1699881;83;21034;-81
2022/07/28 07:34:40;;;;;;;3.10;0.95;;;;;;;22.60;53.30;99700.01;1699621;83;21093;-82
2022/07/28 07:37:10;;;;;;;4.62;1.17;;;;;;;22.67;53.26;99700.86;1699010;83;21179;-83
2022/07/28 07:39:35;;;;;;;3.70;1.17;;;;;;;22.74;52.82;99695.34;1698696;83;21923;-84
2022/07/28 07:42:01;;;;;;;10.85;1.55;;;;;;;22.83;52.27;99702.64;1699240;83;21002;-81
2022/07/28 07:44:28;;;;;;;2.40;0.80;;;;;;;22.88;52.37;99703.11;1699231;83;21010;-82
2022/07/28 07:46:54;;;;;;;2.08;0.82;;;;;;;22.96;51.64;99704.67;1697052;83;21016;-80
2022/07/28 07:49:21;;;;;;;1.65;1.00;;;;;;;23.03;51.44;99705.48;1699110;83;21081;-82
2022/07/28 07:51:48;;;;;;;3.27;1.30;;;;;;;23.11;52.17;99704.37;1699914;83;21208;-82
2022/07/28 07:54:15;;;;;;;5.67;1.30;;;;;;;23.20;53.19;99696.91;1697081;83;21117;-83
2022/07/28 07:56:42;;;;;;;5.33;1.12;;;;;;;23.30;52.25;99705.88;1698387;83;21090;-82
2022/07/28 07:59:08;;;;;;;2.15;0.90;;;;;;;23.36;50.75;99698.63;1698590;83;21870;-82
2022/07/28 08:01:35;;;;;;;4.20;0.95;;;;;;;23.43;48.76;99700.80;1684450;83;21513;-81
2022/07/28 08:04:01;;;;;;;2.08;0.70;;;;;;;23.43;47.71;99710.20;1684108;85;21677;-84
2022/07/28 08:06:29;;;;;;;1.32;0.57;;;;;;;23.42;47.72;99708.02;1684189;85;21196;-84
2022/07/28 08:08:56;;;;;;;1.52;0.62;;;;;;;23.46;47.61;99706.75;1684099;85;21081;-84
2022/07/28 08:11:24;;;;;;;1.57;0.85;;;;;;;23.48;46.70;99710.66;1684173;85;21034;-81
2022/07/28 08:13:51;;;;;;;0.93;0.72;;;;;;;23.50;46.96;99711.37;1684107;85;21070;-80
2022/07/28 08:16:17;;;;;;;5.95;0.82;;;;;;;23.51;45.36;99710.39;1684082;85;21148;-82
2022/07/28 08:18:45;;;;;;;2.80;1.05;;;;;;;23.51;46.27;99714.42;1684002;85;21129;-83
2022/07/28 08:21:15;;;;;;;1.77;0.78;;;;;;;23.52;45.77;99708.09;1684153;84;21090;-83
2022/07/28 08:23:42;;;;;;;1.85;0.70;;;;;;;23.58;45.31;99713.41;1684178;85;21635;-83
2022/07/28 08:26:09;;;;;;;2.87;0.80;;;;;;;23.61;46.32;99712.65;1706200;82;21057;-83
2022/07/28 08:28:35;;;;;;;2.30;0.90;;;;;;;23.69;45.72;99711.50;1728044;82;21127;-82
2022/07/28 08:31:01;;;;;;;2.35;1.00;;;;;;;23.79;45.27;99716.06;1728236;83;21131;-84
2022/07/28 08:33:29;;;;;;;2.65;1.02;;;;;;;23.80;46.25;99721.30;1727892;83;21147;-84
2022/07/28 08:35:55;;;;;;;1.90;0.90;;;;;;;23.88;46.82;99716.15;1727616;82;21041;-80
2022/07/28 08:38:22;;;;;;;10.00;1.10;;;;;;;23.98;46.23;99719.39;1727668;83;21052;-81
2022/07/28 08:40:50;;;;;;;1.50;0.82;;;;;;;24.10;45.87;99717.80;1728123;82;21777;-81
2022/07/28 08:43:35;;;;;;;0.85;0.65;;;;;;;24.24;45.34;99722.45;1727670;82;21499;-83
2022/07/28 08:46:05;;;;;;;2.20;0.75;;;;;;;24.34;45.79;99722.50;1695650;82;21005;-83
2022/07/28 08:48:36;;;;;;;1.27;0.85;;;;;;;24.43;44.41;99725.22;1728011;82;21678;-83
2022/07/28 08:51:08;;;;;;;0.80;0.57;;;;;;;24.43;44.06;99717.66;1728430;82;21627;-83
2022/07/28 08:53:38;;;;;;;2.08;0.85;;;;;;;24.42;45.01;99719.47;1728256;82;21154;-81
2022/07/28 08:56:07;;;;;;;2.80;0.90;;;;;;;24.47;44.68;99714.53;1728344;83;21010;-82
2022/07/28 08:58:35;;;;;;;2.20;0.80;;;;;;;24.54;45.21;99714.83;1728163;82;21139;-83
2022/07/28 09:01:02;;;;;;;4.92;0.70;;;;;;;24.56;43.39;99712.03;1728075;83;21044;-83
2022/07/28 09:03:29;;;;;;;2.20;0.70;;;;;;;24.60;44.16;99714.83;1728049;83;21060;-83
2022/07/28 09:05:56;;;;;;;3.62;1.20;;;;;;;24.60;43.47;99708.94;1728075;83;21220;-81
2022/07/28 09:08:23;;;;;;;7.85;0.93;;;;;;;24.57;43.13;99707.86;1728379;82;21032;-84
2022/07/28 09:10:51;;;;;;;6.30;1.10;;;;;;;24.56;43.46;99714.73;1728126;83;21033;-85
2022/07/28 09:13:19;;;;;;;1.35;0.82;;;;;;;24.64;44.15;99729.69;1728773;83;21092;-81
2022/07/28 09:15:46;;;;;;;2.15;0.80;;;;;;;24.69;43.62;99712.63;1737553;80;21064;-81
2022/07/28 09:18:14;;;;;;;1.82;0.72;;;;;;;24.73;41.67;99712.73;1762922;81;21578;-82
2022/07/28 09:20:42;;;;;;;3.25;1.05;;;;;;;24.71;42.80;99724.09;1761510;81;20954;-83
2022/07/28 09:23:09;;;;;;;9.93;0.98;;;;;;;24.78;42.76;99721.23;1730891;81;21073;-83
2022/07/28 09:25:36;;;;;;;2.75;0.60;;;;;;;24.87;43.59;99715.50;1727748;83;21108;-82
2022/07/28 09:28:14;;;;;;;4.62;0.80;;;;;;;24.95;42.19;99716.99;1727966;82;21060;-81
2022/07/28 09:30:44;;;;;;;5.15;1.05;;;;;;;25.07;43.15;99727.63;1727499;82;21122;-85
2022/07/28 09:33:23;;;;;;;1.80;0.85;;;;;;;25.17;42.87;99730.67;1727707;83;21091;-82
2022/07/28 09:35:52;;;;;;;1.25;0.80;;;;;;;25.28;43.39;99720.77;1728155;83;21535;-82
2022/07/28 09:38:20;;;;;;;2.98;1.32;;;;;;;25.41;43.14;99725.38;1727749;83;21112;-81
2022/07/28 09:41:05;;;;;;;2.27;0.80;;;;;;;25.55;42.62;99728.98;1728627;82;21131;-84
2022/07/28 09:43:42;;;;;;;3.60;0.75;;;;;;;25.62;41.58;99725.69;1728243;83;21132;-82
2022/07/28 09:46:13;;;;;;;1.90;0.80;;;;;;;25.64;41.65;99731.77;1728040;82;21052;-81
2022/07/28 09:48:58;;;;;;;2.87;1.22;;;;;;;25.67;41.15;99731.01;1727324;83;21057;-83
2022/07/28 09:51:29;;;;;;;3.15;0.88;;;;;;;25.74;41.42;99733.98;1727836;82;21017;-83
2022/07/28 09:54:11;;;;;;;2.62;0.80;;;;;;;25.73;40.47;99721.48;1727669;82;21119;-81
2022/07/28 09:56:42;;;;;;;3.17;0.70;;;;;;;25.76;41.11;99725.24;1728249;83;21108;-82
2022/07/28 09:59:10;;;;;;;4.67;0.88;;;;;;;25.74;38.93;99730.77;1727747;83;21053;-82
2022/07/28 10:01:58;;;;;;;5.08;1.22;;;;;;;25.58;40.61;99725.97;1721410;82;21686;-84
2022/07/28 10:04:40;;;;;;;2.02;0.90;;;;;;;25.64;40.32;99734.47;1674931;83;21687;-84
2022/07/28 10:07:18;;;;;;;4.80;1.00;;;;;;;25.77;39.68;99725.57;1719866;83;21042;-81
2022/07/28 10:10:01;;;;;;;2.35;0.72;;;;;;;25.79;39.23;99731.69;1721171;83;21093;-82
2022/07/28 10:12:34;;;;;;;7.10;1.25;;;;;;;25.82;39.59;99730.53;1721052;83;21081;-83
2022/07/28 10:18:04;;;;;;;1.87;1.20;;;;;;;25.98;38.36;99731.31;1720839;83;21080;-81
2022/07/28 10:20:32;;;;;;;3.08;1.02;;;;;;;25.88;39.08;99724.06;1721107;83;21136;-83
2022/07/28 10:23:05;;;;;;;1.30;0.88;;;;;;;25.78;39.23;99731.33;1720864;83;21607;-83
2022/07/28 10:25:33;;;;;;;3.37;1.00;;;;;;;25.64;40.04;99731.30;1720833;83;21010;-80
2022/07/28 10:28:01;;;;;;;1.45;1.02;;;;;;;25.64;39.42;99731.77;1720871;83;21508;-81
2022/07/28 10:30:34;;;;;;;1.45;0.93;;;;;;;25.67;39.61;99728.80;1721242;83;21120;-84
2022/07/28 10:33:02;;;;;;;4.25;1.00;;;;;;;25.81;39.90;99729.69;1720879;83;21060;-81
2022/07/28 10:35:29;;;;;;;1.20;1.10;;;;;;;25.97;37.84;99720.16;1721270;83;21103;-81
2022/07/28 10:38:06;;;;;;;4.87;1.07;;;;;;;26.11;39.23;99723.75;1720884;83;21587;-81
2022/07/28 10:40:35;;;;;;;5.87;1.00;;;;;;;26.21;38.04;99723.20;1721367;83;21028;-82
2022/07/28 10:43:02;;;;;;;3.25;1.32;;;;;;;26.27;36.86;99723.09;1721025;83;21501;-82
2022/07/28 10:45:30;;;;;;;4.62;1.27;;;;;;;26.34;36.26;99729.58;1721064;83;21523;-81
2022/07/28 10:47:56;;;;;;;3.12;0.93;;;;;;;26.39;36.97;99731.84;1721012;83;21551;-83
2022/07/28 10:50:23;;;;;;;26.37;1.32;;;;;;;26.44;36.78;99726.84;1720896;83;21643;-82
2022/07/28 10:52:50;;;;;;;3.50;1.22;;;;;;;26.54;37.56;99731.67;1721191;83;21123;-83
2022/07/28 10:55:47;;;;;;;2.52;1.00;;;;;;;26.66;37.92;99729.17;1721088;83;21009;-80
2022/07/28 10:58:37;;;;;;;2.47;1.07;;;;;;;26.80;36.00;99721.55;1720918;83;21072;-83
2022/07/28 11:01:04;;;;;;;7.97;1.00;;;;;;;26.87;36.97;99728.03;1687110;83;21927;-82
2022/07/28 11:03:42;;;;;;;2.30;1.20;;;;;;;26.91;36.93;99724.01;1720900;83;21584;-83
2022/07/28 11:06:30;;;;;;;4.90;1.45;;;;;;;26.93;37.18;99719.30;1721441;83;21572;-83
2022/07/28 11:09:17;;;;;;;3.60;1.00;;;;;;;26.97;39.51;99732.02;1720840;83;22109;-82
2022/07/28 11:11:51;;;;;;;4.70;0.90;;;;;;;27.10;38.75;99718.11;1703381;83;21108;-83
2022/07/28 11:14:26;;;;;;;1.82;1.00;;;;;;;27.28;37.74;99723.51;1720792;83;21108;-80
2022/07/28 11:17:09;;;;;;;4.33;1.05;;;;;;;27.47;37.10;99717.09;1720989;83;21662;-84
2022/07/28 11:19:52;;;;;;;2.67;1.15;;;;;;;27.60;35.84;99725.64;1720897;83;21030;-83
2022/07/28 11:22:23;;;;;;;2.95;0.80;;;;;;;27.54;33.31;99715.48;1720867;83;21044;-82
2022/07/28 11:25:03;;;;;;;1.82;0.80;;;;;;;27.38;33.14;99710.27;1685957;82;21098;-82
2022/07/28 11:27:45;;;;;;;2.75;1.02;;;;;;;27.18;34.08;99712.78;1672893;85;21177;-83
2022/07/28 11:30:31;;;;;;;3.15;1.40;;;;;;;27.12;34.82;99706.64;1640640;87;21171;-82
2022/07/28 11:32:59;;;;;;;5.58;1.40;;;;;;;27.16;34.06;99718.84;1673081;85;21025;-83
2022/07/28 11:35:27;;;;;;;3.00;0.93;;;;;;;27.01;35.03;99712.63;1649016;87;21163;-82
2022/07/28 11:38:07;;;;;;;14.38;1.55;;;;;;;26.94;35.51;99700.76;1687458;84;21002;-83
2022/07/28 11:40:46;;;;;;;6.50;1.20;;;;;;;26.96;34.95;99708.19;1708014;82;21933;-82
2022/07/28 11:43:28;;;;;;;4.75;1.22;;;;;;;26.89;36.06;99700.38;1707682;83;21014;-82
2022/07/28 11:46:08;;;;;;;1.42;1.07;;;;;;;26.92;35.61;99701.93;1708938;82;21109;-79
2022/07/28 11:48:35;;;;;;;5.55;1.17;;;;;;;27.01;36.69;99701.83;1741350;80;21052;-82
2022/07/28 11:51:08;;;;;;;4.65;1.32;;;;;;;27.15;36.31;99695.53;1762947;81;21087;-78
2022/07/28 11:53:47;;;;;;;3.22;1.00;;;;;;;27.24;36.02;99698.16;1763039;81;21119;-79